Svinoy — V7RM5 — position and weather

sailwx.info

Track history (hours):
 
Tides and Currents Weather Stations Pressure Air Temp Water Temp Dewpoint Dewpoint Depression Visibility Wind Speed Wind Dir Waves Ship Positions

Svinoy

Last reported at 2016-Jun-06 20:31 UTC. Time now 2016-Jun-26 11:56 UTC.
Position N 09°02' W 079°39'.
Warning: this ship's position is 19 days out of date.

Length 190 m; draft 11.6 m.

Type: Cargo ship. MMSI: 538003541.

Date/timePositionNaut miles runAvg speedWind from/ knotsBaromVisibWave heightAir tempDewpointWater temp
2016-Jun-06 20:31N 09°02' W 079°39'10 4.8
2016-Jun-06 18:30N 09°07' W 079°47'9 8.8
2016-Jun-06 17:32N 09°12' W 079°54'3 2.4
2016-Jun-06 16:21N 09°15' W 079°55'0 0.1
2016-Jun-06 15:27N 09°15' W 079°55'0 0.0
2016-Jun-06 14:32N 09°15' W 079°55'0 0.0
2016-Jun-06 13:32N 09°15' W 079°55'0 0.0
2016-Jun-06 12:29N 09°15' W 079°55'0 0.1
2016-Jun-06 11:11N 09°15' W 079°55'0 0.1
2016-Jun-06 10:29N 09°15' W 079°55'0 0.0
2016-Jun-06 09:32N 09°15' W 079°55'0 0.1
2016-Jun-06 08:23N 09°15' W 079°55'0 0.3
2016-Jun-06 07:33N 09°15' W 079°55'1 1.5
2016-Jun-06 06:33N 09°16' W 079°55'0 0.4
2016-Jun-06 05:33N 09°17' W 079°55'3 3.4
2016-Jun-06 04:33N 09°20' W 079°55'6 5.7
2016-Jun-06 03:33N 09°26' W 079°55'3 2.6
2016-Jun-06 02:26N 09°29' W 079°56'0 0.0
2016-Jun-06 01:29N 09°29' W 079°56'0 0.0
2016-Jun-06 00:32N 09°29' W 079°56'0 0.0
2016-Jun-05 23:26N 09°29' W 079°56'0 0.0
2016-Jun-05 22:23N 09°29' W 079°56'0 0.0
2016-Jun-05 21:32N 09°29' W 079°56'0 0.0
2016-Jun-05 20:32N 09°29' W 079°56'0 0.0
2016-Jun-05 19:26N 09°29' W 079°56'0 0.0
2016-Jun-05 18:32N 09°29' W 079°56'0 0.0
2016-Jun-05 17:20N 09°29' W 079°56'0 0.0
2016-Jun-05 16:32N 09°29' W 079°56'0 0.0
2016-Jun-05 15:29N 09°29' W 079°56'0 0.0
2016-Jun-05 14:26N 09°29' W 079°56'0 0.0
2016-Jun-05 13:26N 09°29' W 079°56'0 0.0
2016-Jun-05 12:32N 09°29' W 079°56'0 0.0
2016-Jun-05 11:32N 09°29' W 079°56'0 0.0
2016-Jun-05 10:32N 09°29' W 079°56'0 0.0
2016-Jun-05 09:32N 09°29' W 079°56'0 0.0
2016-Jun-05 08:20N 09°29' W 079°56'0 0.4
2016-Jun-05 07:33N 09°29' W 079°55'5 5.4
2016-Jun-05 06:34N 09°33' W 079°53'1110.8
2016-Jun-05 05:33N 09°44' W 079°49'  
2016-May-30 20:33N 29°49' W 090°00'7 6.4
2016-May-30 19:27N 29°55' W 089°58'9 9.8
2016-May-30 18:33N 29°55' W 090°08'9 8.8
2016-May-30 17:33N 29°58' W 090°18'3 0.4
2016-May-30 08:22N 29°56' W 090°21'2 0.1
2016-May-29 09:31N 29°56' W 090°19'2 1.3
2016-May-29 08:05N 29°58' W 090°18'0 0.0
2016-May-29 07:32N 29°58' W 090°18'0 0.0
2016-May-29 06:32N 29°58' W 090°18'0 0.0
2016-May-29 05:32N 29°58' W 090°18'0 0.0
2016-May-29 04:32N 29°58' W 090°18'0 0.0
2016-May-29 02:32N 29°58' W 090°18'0 0.0
2016-May-29 01:32N 29°58' W 090°18'0 0.0
2016-May-29 00:26N 29°58' W 090°18'0 0.0
2016-May-28 23:32N 29°58' W 090°18'0 0.0
2016-May-28 22:32N 29°58' W 090°18'0 0.0
2016-May-28 21:29N 29°58' W 090°18'0 0.0
2016-May-28 20:32N 29°58' W 090°18'0 0.0
2016-May-28 19:26N 29°58' W 090°18'0 0.0
2016-May-28 18:32N 29°58' W 090°18'0 0.0
2016-May-28 17:29N 29°58' W 090°18'0 0.0
2016-May-28 16:26N 29°58' W 090°18'0 0.0
2016-May-28 15:26N 29°58' W 090°18'0 0.0
2016-May-28 14:29N 29°58' W 090°18'0 0.0
2016-May-28 13:29N 29°58' W 090°18'0 0.0
2016-May-28 12:29N 29°58' W 090°18'0 0.0
2016-May-28 11:23N 29°58' W 090°18'0 0.0
2016-May-28 10:20N 29°58' W 090°18'0 0.0
2016-May-28 09:32N 29°58' W 090°18'0 0.0
2016-May-28 08:32N 29°58' W 090°18'0 0.0
2016-May-28 07:32N 29°58' W 090°18'0 0.0
2016-May-28 06:26N 29°58' W 090°18'0 0.0
2016-May-28 05:23N 29°58' W 090°18'0 0.0
2016-May-28 02:26N 29°58' W 090°18'0 0.0
2016-May-28 01:29N 29°58' W 090°18'0 0.0
2016-May-28 00:29N 29°58' W 090°18'0 0.0
2016-May-27 23:29N 29°58' W 090°18'0 0.0
2016-May-27 22:32N 29°58' W 090°18'0 0.0
2016-May-27 21:29N 29°58' W 090°18'0 0.0
2016-May-27 20:32N 29°58' W 090°18'  
Track history (hours):
 
Tides and Currents Weather Stations Pressure Air Temp Water Temp Dewpoint Dewpoint Depression Visibility Wind Speed Wind Dir Waves Ship Positions

Svinoy

Last reported at 2016-Jun-06 20:31 UTC. Time now 2016-Jun-26 11:56 UTC.
Position N 09°02' W 079°39'.
Warning: this ship's position is 19 days out of date.

Length 190 m; draft 11.6 m.

Type: Cargo ship. MMSI: 538003541.

Date/timePositionNaut miles runAvg speedWind from/ knotsBaromVisibWave heightAir tempDewpointWater temp
2016-Jun-06 20:31N 09°02' W 079°39'10 4.8
2016-Jun-06 18:30N 09°07' W 079°47'9 8.8
2016-Jun-06 17:32N 09°12' W 079°54'3 2.4
2016-Jun-06 16:21N 09°15' W 079°55'0 0.1
2016-Jun-06 15:27N 09°15' W 079°55'0 0.0
2016-Jun-06 14:32N 09°15' W 079°55'0 0.0
2016-Jun-06 13:32N 09°15' W 079°55'0 0.0
2016-Jun-06 12:29N 09°15' W 079°55'0 0.1
2016-Jun-06 11:11N 09°15' W 079°55'0 0.1
2016-Jun-06 10:29N 09°15' W 079°55'0 0.0
2016-Jun-06 09:32N 09°15' W 079°55'0 0.1
2016-Jun-06 08:23N 09°15' W 079°55'0 0.3
2016-Jun-06 07:33N 09°15' W 079°55'1 1.5
2016-Jun-06 06:33N 09°16' W 079°55'0 0.4
2016-Jun-06 05:33N 09°17' W 079°55'3 3.4
2016-Jun-06 04:33N 09°20' W 079°55'6 5.7
2016-Jun-06 03:33N 09°26' W 079°55'3 2.6
2016-Jun-06 02:26N 09°29' W 079°56'0 0.0
2016-Jun-06 01:29N 09°29' W 079°56'0 0.0
2016-Jun-06 00:32N 09°29' W 079°56'0 0.0
2016-Jun-05 23:26N 09°29' W 079°56'0 0.0
2016-Jun-05 22:23N 09°29' W 079°56'0 0.0
2016-Jun-05 21:32N 09°29' W 079°56'0 0.0
2016-Jun-05 20:32N 09°29' W 079°56'0 0.0
2016-Jun-05 19:26N 09°29' W 079°56'0 0.0
2016-Jun-05 18:32N 09°29' W 079°56'0 0.0
2016-Jun-05 17:20N 09°29' W 079°56'0 0.0
2016-Jun-05 16:32N 09°29' W 079°56'0 0.0
2016-Jun-05 15:29N 09°29' W 079°56'0 0.0
2016-Jun-05 14:26N 09°29' W 079°56'0 0.0
2016-Jun-05 13:26N 09°29' W 079°56'0 0.0
2016-Jun-05 12:32N 09°29' W 079°56'0 0.0
2016-Jun-05 11:32N 09°29' W 079°56'0 0.0
2016-Jun-05 10:32N 09°29' W 079°56'0 0.0
2016-Jun-05 09:32N 09°29' W 079°56'0 0.0
2016-Jun-05 08:20N 09°29' W 079°56'0 0.4
2016-Jun-05 07:33N 09°29' W 079°55'5 5.4
2016-Jun-05 06:34N 09°33' W 079°53'1110.8
2016-Jun-05 05:33N 09°44' W 079°49'  
2016-May-30 20:33N 29°49' W 090°00'7 6.4
2016-May-30 19:27N 29°55' W 089°58'9 9.8
2016-May-30 18:33N 29°55' W 090°08'9 8.8
2016-May-30 17:33N 29°58' W 090°18'3 0.4
2016-May-30 08:22N 29°56' W 090°21'2 0.1
2016-May-29 09:31N 29°56' W 090°19'2 1.3
2016-May-29 08:05N 29°58' W 090°18'0 0.0
2016-May-29 07:32N 29°58' W 090°18'0 0.0
2016-May-29 06:32N 29°58' W 090°18'0 0.0
2016-May-29 05:32N 29°58' W 090°18'0 0.0
2016-May-29 04:32N 29°58' W 090°18'0 0.0
2016-May-29 02:32N 29°58' W 090°18'0 0.0
2016-May-29 01:32N 29°58' W 090°18'0 0.0
2016-May-29 00:26N 29°58' W 090°18'0 0.0
2016-May-28 23:32N 29°58' W 090°18'0 0.0
2016-May-28 22:32N 29°58' W 090°18'0 0.0
2016-May-28 21:29N 29°58' W 090°18'0 0.0
2016-May-28 20:32N 29°58' W 090°18'0 0.0
2016-May-28 19:26N 29°58' W 090°18'0 0.0
2016-May-28 18:32N 29°58' W 090°18'0 0.0
2016-May-28 17:29N 29°58' W 090°18'0 0.0
2016-May-28 16:26N 29°58' W 090°18'0 0.0
2016-May-28 15:26N 29°58' W 090°18'0 0.0
2016-May-28 14:29N 29°58' W 090°18'0 0.0
2016-May-28 13:29N 29°58' W 090°18'0 0.0
2016-May-28 12:29N 29°58' W 090°18'0 0.0
2016-May-28 11:23N 29°58' W 090°18'0 0.0
2016-May-28 10:20N 29°58' W 090°18'0 0.0
2016-May-28 09:32N 29°58' W 090°18'0 0.0
2016-May-28 08:32N 29°58' W 090°18'0 0.0
2016-May-28 07:32N 29°58' W 090°18'0 0.0
2016-May-28 06:26N 29°58' W 090°18'0 0.0
2016-May-28 05:23N 29°58' W 090°18'0 0.0
2016-May-28 02:26N 29°58' W 090°18'0 0.0
2016-May-28 01:29N 29°58' W 090°18'0 0.0
2016-May-28 00:29N 29°58' W 090°18'0 0.0
2016-May-27 23:29N 29°58' W 090°18'0 0.0
2016-May-27 22:32N 29°58' W 090°18'0 0.0
2016-May-27 21:29N 29°58' W 090°18'0 0.0
2016-May-27 20:32N 29°58' W 090°18'  

Dump ship's entire track history